sensor_id;sensor_type;location;lat;lon;timestamp;P1;durP1;ratioP1;P2;durP2;ratioP2
45296;SDS011;31040;51.622;10.420;2023-07-20T00:00:53;10.55;;;8.30;;
45296;SDS011;31040;51.622;10.420;2023-07-20T00:03:20;8.55;;;7.22;;
45296;SDS011;31040;51.622;10.420;2023-07-20T00:05:51;8.65;;;7.75;;
45296;SDS011;31040;51.622;10.420;2023-07-20T00:08:19;8.82;;;7.93;;
45296;SDS011;31040;51.622;10.420;2023-07-20T00:10:46;8.35;;;7.55;;
45296;SDS011;31040;51.622;10.420;2023-07-20T00:13:14;9.40;;;8.18;;
45296;SDS011;31040;51.622;10.420;2023-07-20T00:15:42;8.35;;;7.50;;
45296;SDS011;31040;51.622;10.420;2023-07-20T00:18:09;9.65;;;8.43;;
45296;SDS011;31040;51.622;10.420;2023-07-20T00:20:37;12.82;;;8.52;;
45296;SDS011;31040;51.622;10.420;2023-07-20T00:23:04;9.90;;;8.43;;
45296;SDS011;31040;51.622;10.420;2023-07-20T00:25:32;9.23;;;8.30;;
45296;SDS011;31040;51.622;10.420;2023-07-20T00:27:59;10.98;;;8.55;;
45296;SDS011;31040;51.622;10.420;2023-07-20T00:30:27;9.20;;;8.30;;
45296;SDS011;31040;51.622;10.420;2023-07-20T00:32:55;10.68;;;8.77;;
45296;SDS011;31040;51.622;10.420;2023-07-20T00:35:22;9.65;;;8.75;;
45296;SDS011;31040;51.622;10.420;2023-07-20T00:37:50;8.63;;;7.82;;
45296;SDS011;31040;51.622;10.420;2023-07-20T00:40:17;9.00;;;8.27;;
45296;SDS011;31040;51.622;10.420;2023-07-20T00:42:44;9.45;;;8.60;;
45296;SDS011;31040;51.622;10.420;2023-07-20T00:45:12;10.18;;;7.93;;
45296;SDS011;31040;51.622;10.420;2023-07-20T00:47:42;15.15;;;9.70;;
45296;SDS011;31040;51.622;10.420;2023-07-20T00:50:10;10.40;;;8.60;;
45296;SDS011;31040;51.622;10.420;2023-07-20T00:52:37;9.82;;;8.80;;
45296;SDS011;31040;51.622;10.420;2023-07-20T00:55:06;10.57;;;9.57;;
45296;SDS011;31040;51.622;10.420;2023-07-20T00:57:34;10.68;;;9.10;;
45296;SDS011;31040;51.622;10.420;2023-07-20T01:00:02;10.50;;;9.40;;
45296;SDS011;31040;51.622;10.420;2023-07-20T01:02:29;9.60;;;8.70;;
45296;SDS011;31040;51.622;10.420;2023-07-20T01:04:57;10.43;;;9.38;;
45296;SDS011;31040;51.622;10.420;2023-07-20T01:07:38;9.55;;;8.55;;
45296;SDS011;31040;51.622;10.420;2023-07-20T01:12:40;8.70;;;7.90;;
45296;SDS011;31040;51.622;10.420;2023-07-20T01:15:08;8.70;;;7.90;;
45296;SDS011;31040;51.622;10.420;2023-07-20T01:17:36;9.20;;;7.90;;
45296;SDS011;31040;51.622;10.420;2023-07-20T01:20:04;9.15;;;8.30;;
45296;SDS011;31040;51.622;10.420;2023-07-20T01:25:12;8.68;;;7.55;;
45296;SDS011;31040;51.622;10.420;2023-07-20T01:28:07;8.45;;;7.55;;
45296;SDS011;31040;51.622;10.420;2023-07-20T01:33:07;9.07;;;7.30;;
45296;SDS011;31040;51.622;10.420;2023-07-20T01:35:35;8.15;;;7.35;;
45296;SDS011;31040;51.622;10.420;2023-07-20T01:38:03;9.02;;;7.70;;
45296;SDS011;31040;51.622;10.420;2023-07-20T01:40:31;9.38;;;7.60;;
45296;SDS011;31040;51.622;10.420;2023-07-20T01:42:59;8.35;;;7.53;;
45296;SDS011;31040;51.622;10.420;2023-07-20T01:45:26;8.32;;;7.53;;
45296;SDS011;31040;51.622;10.420;2023-07-20T01:47:53;10.25;;;7.47;;
45296;SDS011;31040;51.622;10.420;2023-07-20T01:50:21;12.48;;;8.73;;
45296;SDS011;31040;51.622;10.420;2023-07-20T01:52:48;9.27;;;7.80;;
45296;SDS011;31040;51.622;10.420;2023-07-20T01:55:16;8.93;;;7.45;;
45296;SDS011;31040;51.622;10.420;2023-07-20T01:57:43;7.95;;;7.15;;
45296;SDS011;31040;51.622;10.420;2023-07-20T02:00:11;8.27;;;7.47;;
45296;SDS011;31040;51.622;10.420;2023-07-20T02:02:38;7.22;;;6.63;;
45296;SDS011;31040;51.622;10.420;2023-07-20T02:05:06;6.55;;;5.90;;
45296;SDS011;31040;51.622;10.420;2023-07-20T02:07:34;6.47;;;5.88;;
45296;SDS011;31040;51.622;10.420;2023-07-20T02:10:01;5.13;;;4.65;;
45296;SDS011;31040;51.622;10.420;2023-07-20T02:12:29;5.88;;;5.38;;
45296;SDS011;31040;51.622;10.420;2023-07-20T02:14:56;7.40;;;6.28;;
45296;SDS011;31040;51.622;10.420;2023-07-20T02:17:23;6.60;;;6.00;;
45296;SDS011;31040;51.622;10.420;2023-07-20T02:19:56;7.03;;;6.30;;
45296;SDS011;31040;51.622;10.420;2023-07-20T02:22:24;7.70;;;6.43;;
45296;SDS011;31040;51.622;10.420;2023-07-20T02:24:51;7.70;;;6.90;;
45296;SDS011;31040;51.622;10.420;2023-07-20T02:27:18;6.95;;;6.35;;
45296;SDS011;31040;51.622;10.420;2023-07-20T02:29:46;6.95;;;6.10;;
45296;SDS011;31040;51.622;10.420;2023-07-20T02:32:13;9.45;;;8.02;;
45296;SDS011;31040;51.622;10.420;2023-07-20T02:34:41;7.05;;;6.45;;
45296;SDS011;31040;51.622;10.420;2023-07-20T02:37:08;7.55;;;6.22;;
45296;SDS011;31040;51.622;10.420;2023-07-20T02:39:37;7.50;;;6.82;;
45296;SDS011;31040;51.622;10.420;2023-07-20T02:42:05;7.93;;;6.68;;
45296;SDS011;31040;51.622;10.420;2023-07-20T02:44:32;6.97;;;6.38;;
45296;SDS011;31040;51.622;10.420;2023-07-20T02:47:00;8.50;;;6.40;;
45296;SDS011;31040;51.622;10.420;2023-07-20T02:49:27;7.30;;;6.50;;
45296;SDS011;31040;51.622;10.420;2023-07-20T02:51:55;6.60;;;5.95;;
45296;SDS011;31040;51.622;10.420;2023-07-20T02:54:22;6.72;;;5.95;;
45296;SDS011;31040;51.622;10.420;2023-07-20T02:56:50;7.38;;;6.47;;
45296;SDS011;31040;51.622;10.420;2023-07-20T02:59:17;7.30;;;6.38;;
45296;SDS011;31040;51.622;10.420;2023-07-20T03:01:45;6.75;;;6.07;;
45296;SDS011;31040;51.622;10.420;2023-07-20T03:04:12;8.20;;;6.50;;
45296;SDS011;31040;51.622;10.420;2023-07-20T03:06:40;6.43;;;5.82;;
45296;SDS011;31040;51.622;10.420;2023-07-20T03:09:07;7.38;;;6.38;;
45296;SDS011;31040;51.622;10.420;2023-07-20T03:11:35;7.88;;;6.30;;
45296;SDS011;31040;51.622;10.420;2023-07-20T03:14:03;7.05;;;6.38;;
45296;SDS011;31040;51.622;10.420;2023-07-20T03:16:30;7.28;;;6.50;;
45296;SDS011;31040;51.622;10.420;2023-07-20T03:18:59;7.10;;;6.50;;
45296;SDS011;31040;51.622;10.420;2023-07-20T03:21:27;7.13;;;6.43;;
45296;SDS011;31040;51.622;10.420;2023-07-20T03:23:55;7.50;;;6.80;;
45296;SDS011;31040;51.622;10.420;2023-07-20T03:26:22;8.38;;;6.60;;
45296;SDS011;31040;51.622;10.420;2023-07-20T03:28:50;7.65;;;6.80;;
45296;SDS011;31040;51.622;10.420;2023-07-20T03:31:18;8.50;;;6.45;;
45296;SDS011;31040;51.622;10.420;2023-07-20T03:33:45;7.63;;;6.82;;
45296;SDS011;31040;51.622;10.420;2023-07-20T03:36:12;7.63;;;6.75;;
45296;SDS011;31040;51.622;10.420;2023-07-20T03:38:40;7.28;;;6.53;;
45296;SDS011;31040;51.622;10.420;2023-07-20T03:41:07;6.55;;;6.05;;
45296;SDS011;31040;51.622;10.420;2023-07-20T03:43:35;7.35;;;5.85;;
45296;SDS011;31040;51.622;10.420;2023-07-20T03:46:03;5.93;;;5.43;;
45296;SDS011;31040;51.622;10.420;2023-07-20T03:48:33;5.40;;;4.90;;
45296;SDS011;31040;51.622;10.420;2023-07-20T03:51:01;5.85;;;5.25;;
45296;SDS011;31040;51.622;10.420;2023-07-20T03:53:29;6.57;;;5.13;;
45296;SDS011;31040;51.622;10.420;2023-07-20T03:55:56;6.13;;;5.50;;
45296;SDS011;31040;51.622;10.420;2023-07-20T03:58:24;5.90;;;5.30;;
45296;SDS011;31040;51.622;10.420;2023-07-20T04:00:51;5.68;;;5.18;;
45296;SDS011;31040;51.622;10.420;2023-07-20T04:03:19;5.88;;;5.38;;
45296;SDS011;31040;51.622;10.420;2023-07-20T04:05:46;5.88;;;5.30;;
45296;SDS011;31040;51.622;10.420;2023-07-20T04:08:14;6.18;;;5.68;;
45296;SDS011;31040;51.622;10.420;2023-07-20T04:10:44;5.93;;;5.43;;
45296;SDS011;31040;51.622;10.420;2023-07-20T04:13:12;5.60;;;5.03;;
45296;SDS011;31040;51.622;10.420;2023-07-20T04:15:39;6.13;;;5.53;;
45296;SDS011;31040;51.622;10.420;2023-07-20T04:18:07;6.53;;;5.80;;
45296;SDS011;31040;51.622;10.420;2023-07-20T04:20:34;7.75;;;5.65;;
45296;SDS011;31040;51.622;10.420;2023-07-20T04:23:01;6.32;;;5.70;;
45296;SDS011;31040;51.622;10.420;2023-07-20T04:25:29;6.70;;;6.03;;
45296;SDS011;31040;51.622;10.420;2023-07-20T04:28:08;7.68;;;6.97;;
45296;SDS011;31040;51.622;10.420;2023-07-20T04:30:36;7.15;;;6.55;;
45296;SDS011;31040;51.622;10.420;2023-07-20T04:33:04;6.95;;;6.28;;
45296;SDS011;31040;51.622;10.420;2023-07-20T04:35:44;6.72;;;6.13;;
45296;SDS011;31040;51.622;10.420;2023-07-20T04:38:12;6.45;;;5.85;;
45296;SDS011;31040;51.622;10.420;2023-07-20T04:40:39;6.47;;;5.90;;
45296;SDS011;31040;51.622;10.420;2023-07-20T04:43:07;5.65;;;4.95;;
45296;SDS011;31040;51.622;10.420;2023-07-20T04:45:34;6.10;;;5.50;;
45296;SDS011;31040;51.622;10.420;2023-07-20T04:48:02;6.13;;;5.57;;
45296;SDS011;31040;51.622;10.420;2023-07-20T04:50:29;6.05;;;5.43;;
45296;SDS011;31040;51.622;10.420;2023-07-20T04:52:56;7.43;;;5.40;;
45296;SDS011;31040;51.622;10.420;2023-07-20T04:55:24;7.78;;;6.35;;
45296;SDS011;31040;51.622;10.420;2023-07-20T04:57:52;6.15;;;5.55;;
45296;SDS011;31040;51.622;10.420;2023-07-20T05:00:19;6.22;;;5.18;;
45296;SDS011;31040;51.622;10.420;2023-07-20T05:02:47;5.90;;;5.38;;
45296;SDS011;31040;51.622;10.420;2023-07-20T05:05:15;6.13;;;5.63;;
45296;SDS011;31040;51.622;10.420;2023-07-20T05:07:43;5.35;;;4.72;;
45296;SDS011;31040;51.622;10.420;2023-07-20T05:10:10;5.22;;;4.82;;
45296;SDS011;31040;51.622;10.420;2023-07-20T05:12:38;6.35;;;5.75;;
45296;SDS011;31040;51.622;10.420;2023-07-20T05:15:05;6.32;;;5.82;;
45296;SDS011;31040;51.622;10.420;2023-07-20T05:17:33;7.05;;;6.35;;
45296;SDS011;31040;51.622;10.420;2023-07-20T05:20:00;7.35;;;5.85;;
45296;SDS011;31040;51.622;10.420;2023-07-20T05:22:28;5.45;;;5.00;;
45296;SDS011;31040;51.622;10.420;2023-07-20T05:24:56;6.20;;;5.60;;
45296;SDS011;31040;51.622;10.420;2023-07-20T05:27:23;10.10;;;6.25;;
45296;SDS011;31040;51.622;10.420;2023-07-20T05:29:50;9.52;;;6.00;;
45296;SDS011;31040;51.622;10.420;2023-07-20T05:32:19;7.28;;;6.10;;
45296;SDS011;31040;51.622;10.420;2023-07-20T05:34:46;6.63;;;6.00;;
45296;SDS011;31040;51.622;10.420;2023-07-20T05:37:14;8.20;;;6.15;;
45296;SDS011;31040;51.622;10.420;2023-07-20T05:39:41;7.15;;;6.25;;
45296;SDS011;31040;51.622;10.420;2023-07-20T05:42:08;7.63;;;6.28;;
45296;SDS011;31040;51.622;10.420;2023-07-20T05:44:36;6.07;;;5.22;;
45296;SDS011;31040;51.622;10.420;2023-07-20T05:47:06;5.78;;;5.28;;
45296;SDS011;31040;51.622;10.420;2023-07-20T05:49:34;7.18;;;5.78;;
45296;SDS011;31040;51.622;10.420;2023-07-20T05:52:01;6.35;;;5.75;;
45296;SDS011;31040;51.622;10.420;2023-07-20T05:54:29;6.88;;;6.22;;
45296;SDS011;31040;51.622;10.420;2023-07-20T05:56:56;5.85;;;5.35;;
45296;SDS011;31040;51.622;10.420;2023-07-20T05:59:24;7.50;;;5.68;;
45296;SDS011;31040;51.622;10.420;2023-07-20T06:01:51;7.13;;;5.85;;
45296;SDS011;31040;51.622;10.420;2023-07-20T06:04:19;6.07;;;5.47;;
45296;SDS011;31040;51.622;10.420;2023-07-20T06:06:46;6.65;;;5.88;;
45296;SDS011;31040;51.622;10.420;2023-07-20T06:09:14;6.63;;;5.47;;
45296;SDS011;31040;51.622;10.420;2023-07-20T06:11:41;7.55;;;5.45;;
45296;SDS011;31040;51.622;10.420;2023-07-20T06:14:09;6.45;;;5.57;;
45296;SDS011;31040;51.622;10.420;2023-07-20T06:16:37;6.63;;;5.25;;
45296;SDS011;31040;51.622;10.420;2023-07-20T06:19:04;6.43;;;5.82;;
45296;SDS011;31040;51.622;10.420;2023-07-20T06:21:32;5.68;;;5.18;;
45296;SDS011;31040;51.622;10.420;2023-07-20T06:23:59;6.13;;;5.57;;
45296;SDS011;31040;51.622;10.420;2023-07-20T06:26:27;5.88;;;5.22;;
45296;SDS011;31040;51.622;10.420;2023-07-20T06:28:56;6.72;;;5.95;;
45296;SDS011;31040;51.622;10.420;2023-07-20T06:31:24;6.30;;;5.68;;
45296;SDS011;31040;51.622;10.420;2023-07-20T06:33:51;6.80;;;6.28;;
45296;SDS011;31040;51.622;10.420;2023-07-20T06:36:19;6.88;;;5.90;;
45296;SDS011;31040;51.622;10.420;2023-07-20T06:38:47;7.38;;;6.68;;
45296;SDS011;31040;51.622;10.420;2023-07-20T06:41:17;7.60;;;6.95;;
45296;SDS011;31040;51.622;10.420;2023-07-20T06:43:48;9.98;;;8.75;;
45296;SDS011;31040;51.622;10.420;2023-07-20T06:46:15;9.40;;;8.18;;
45296;SDS011;31040;51.622;10.420;2023-07-20T06:48:43;10.35;;;9.23;;
45296;SDS011;31040;51.622;10.420;2023-07-20T06:51:13;10.07;;;8.35;;
45296;SDS011;31040;51.622;10.420;2023-07-20T06:53:41;10.55;;;8.75;;
45296;SDS011;31040;51.622;10.420;2023-07-20T06:56:08;9.98;;;8.90;;
45296;SDS011;31040;51.622;10.420;2023-07-20T06:58:35;17.10;;;10.73;;
45296;SDS011;31040;51.622;10.420;2023-07-20T07:01:07;11.77;;;9.77;;
45296;SDS011;31040;51.622;10.420;2023-07-20T07:03:34;10.63;;;9.63;;
45296;SDS011;31040;51.622;10.420;2023-07-20T07:06:03;9.95;;;8.95;;
45296;SDS011;31040;51.622;10.420;2023-07-20T07:08:30;10.70;;;9.60;;
45296;SDS011;31040;51.622;10.420;2023-07-20T07:10:58;11.27;;;9.93;;
45296;SDS011;31040;51.622;10.420;2023-07-20T07:13:25;12.77;;;10.35;;
45296;SDS011;31040;51.622;10.420;2023-07-20T07:15:53;11.60;;;9.95;;
45296;SDS011;31040;51.622;10.420;2023-07-20T07:18:20;11.88;;;10.50;;
45296;SDS011;31040;51.622;10.420;2023-07-20T07:20:51;13.00;;;10.80;;
45296;SDS011;31040;51.622;10.420;2023-07-20T07:23:19;12.55;;;11.35;;
45296;SDS011;31040;51.622;10.420;2023-07-20T07:25:47;13.25;;;11.68;;
45296;SDS011;31040;51.622;10.420;2023-07-20T07:28:14;13.85;;;12.27;;
45296;SDS011;31040;51.622;10.420;2023-07-20T07:30:42;15.50;;;12.10;;
45296;SDS011;31040;51.622;10.420;2023-07-20T07:33:09;14.27;;;12.77;;
45296;SDS011;31040;51.622;10.420;2023-07-20T07:35:37;15.38;;;13.63;;
45296;SDS011;31040;51.622;10.420;2023-07-20T07:38:04;15.23;;;13.15;;
45296;SDS011;31040;51.622;10.420;2023-07-20T07:40:52;14.88;;;13.38;;
45296;SDS011;31040;51.622;10.420;2023-07-20T07:43:20;13.57;;;12.20;;
45296;SDS011;31040;51.622;10.420;2023-07-20T07:45:47;16.23;;;12.82;;
45296;SDS011;31040;51.622;10.420;2023-07-20T07:48:15;13.82;;;12.45;;
45296;SDS011;31040;51.622;10.420;2023-07-20T07:50:43;13.13;;;11.73;;
45296;SDS011;31040;51.622;10.420;2023-07-20T07:53:10;15.00;;;12.68;;
45296;SDS011;31040;51.622;10.420;2023-07-20T07:55:38;10.20;;;9.20;;
45296;SDS011;31040;51.622;10.420;2023-07-20T07:58:05;11.82;;;9.18;;
45296;SDS011;31040;51.622;10.420;2023-07-20T08:00:33;10.07;;;9.05;;
45296;SDS011;31040;51.622;10.420;2023-07-20T08:03:00;8.93;;;7.45;;
45296;SDS011;31040;51.622;10.420;2023-07-20T08:05:28;6.90;;;6.30;;
45296;SDS011;31040;51.622;10.420;2023-07-20T08:07:55;6.60;;;6.05;;
45296;SDS011;31040;51.622;10.420;2023-07-20T08:10:23;6.80;;;5.95;;
45296;SDS011;31040;51.622;10.420;2023-07-20T08:12:50;8.75;;;5.88;;
45296;SDS011;31040;51.622;10.420;2023-07-20T08:15:17;5.20;;;4.80;;
45296;SDS011;31040;51.622;10.420;2023-07-20T08:17:45;4.88;;;4.47;;
45296;SDS011;31040;51.622;10.420;2023-07-20T08:20:13;5.38;;;3.88;;
45296;SDS011;31040;51.622;10.420;2023-07-20T08:22:40;4.60;;;4.20;;
45296;SDS011;31040;51.622;10.420;2023-07-20T08:25:08;3.45;;;2.90;;
45296;SDS011;31040;51.622;10.420;2023-07-20T08:27:36;2.75;;;2.55;;
45296;SDS011;31040;51.622;10.420;2023-07-20T08:30:04;2.25;;;2.10;;
45296;SDS011;31040;51.622;10.420;2023-07-20T08:32:32;2.05;;;1.95;;
45296;SDS011;31040;51.622;10.420;2023-07-20T08:35:00;2.55;;;1.65;;
45296;SDS011;31040;51.622;10.420;2023-07-20T08:37:27;2.05;;;1.80;;
45296;SDS011;31040;51.622;10.420;2023-07-20T08:39:55;2.70;;;2.05;;
45296;SDS011;31040;51.622;10.420;2023-07-20T08:42:22;3.17;;;2.00;;
45296;SDS011;31040;51.622;10.420;2023-07-20T08:44:50;1.52;;;1.30;;
45296;SDS011;31040;51.622;10.420;2023-07-20T08:47:19;1.30;;;1.20;;
45296;SDS011;31040;51.622;10.420;2023-07-20T08:49:50;1.65;;;1.40;;
45296;SDS011;31040;51.622;10.420;2023-07-20T08:52:18;1.50;;;1.40;;
45296;SDS011;31040;51.622;10.420;2023-07-20T08:54:45;1.50;;;1.40;;
45296;SDS011;31040;51.622;10.420;2023-07-20T08:57:13;1.73;;;1.55;;
45296;SDS011;31040;51.622;10.420;2023-07-20T08:59:41;2.22;;;1.65;;
45296;SDS011;31040;51.622;10.420;2023-07-20T09:02:08;1.85;;;1.45;;
45296;SDS011;31040;51.622;10.420;2023-07-20T09:07:11;1.33;;;1.20;;
45296;SDS011;31040;51.622;10.420;2023-07-20T09:09:41;0.80;;;0.80;;
45296;SDS011;31040;51.622;10.420;2023-07-20T09:12:18;1.77;;;1.00;;
45296;SDS011;31040;51.622;10.420;2023-07-20T09:14:45;1.08;;;1.00;;
45296;SDS011;31040;51.622;10.420;2023-07-20T09:17:13;0.82;;;0.82;;
45296;SDS011;31040;51.622;10.420;2023-07-20T09:19:46;0.80;;;0.75;;
45296;SDS011;31040;51.622;10.420;2023-07-20T09:22:14;0.70;;;0.70;;
45296;SDS011;31040;51.622;10.420;2023-07-20T09:24:41;0.82;;;0.80;;
45296;SDS011;31040;51.622;10.420;2023-07-20T09:27:10;0.60;;;0.60;;
45296;SDS011;31040;51.622;10.420;2023-07-20T09:29:50;0.70;;;0.70;;
45296;SDS011;31040;51.622;10.420;2023-07-20T09:32:18;0.63;;;0.63;;
45296;SDS011;31040;51.622;10.420;2023-07-20T09:34:50;0.70;;;0.70;;
45296;SDS011;31040;51.622;10.420;2023-07-20T09:37:21;0.60;;;0.60;;
45296;SDS011;31040;51.622;10.420;2023-07-20T09:39:51;1.38;;;0.88;;
45296;SDS011;31040;51.622;10.420;2023-07-20T09:42:22;0.85;;;0.60;;
45296;SDS011;31040;51.622;10.420;2023-07-20T09:44:54;1.45;;;0.80;;
45296;SDS011;31040;51.622;10.420;2023-07-20T09:47:25;0.70;;;0.70;;
45296;SDS011;31040;51.622;10.420;2023-07-20T09:49:58;0.47;;;0.47;;
45296;SDS011;31040;51.622;10.420;2023-07-20T09:52:29;0.82;;;0.60;;
45296;SDS011;31040;51.622;10.420;2023-07-20T09:55:00;0.60;;;0.60;;
45296;SDS011;31040;51.622;10.420;2023-07-20T09:57:28;0.50;;;0.50;;
45296;SDS011;31040;51.622;10.420;2023-07-20T09:59:55;0.68;;;0.68;;
45296;SDS011;31040;51.622;10.420;2023-07-20T10:02:32;0.60;;;0.60;;
45296;SDS011;31040;51.622;10.420;2023-07-20T10:05:02;7.82;;;0.77;;
45296;SDS011;31040;51.622;10.420;2023-07-20T10:07:30;0.57;;;0.57;;
45296;SDS011;31040;51.622;10.420;2023-07-20T10:09:59;0.60;;;0.60;;
45296;SDS011;31040;51.622;10.420;2023-07-20T10:12:28;3.33;;;0.65;;
45296;SDS011;31040;51.622;10.420;2023-07-20T10:15:02;0.50;;;0.50;;
45296;SDS011;31040;51.622;10.420;2023-07-20T10:17:33;3.60;;;1.10;;
45296;SDS011;31040;51.622;10.420;2023-07-20T10:20:00;2.28;;;0.80;;
45296;SDS011;31040;51.622;10.420;2023-07-20T10:22:29;0.60;;;0.60;;
45296;SDS011;31040;51.622;10.420;2023-07-20T10:25:07;0.50;;;0.50;;
45296;SDS011;31040;51.622;10.420;2023-07-20T10:27:35;1.63;;;0.93;;
45296;SDS011;31040;51.622;10.420;2023-07-20T10:30:02;0.70;;;0.70;;
45296;SDS011;31040;51.622;10.420;2023-07-20T10:32:31;0.73;;;0.73;;
45296;SDS011;31040;51.622;10.420;2023-07-20T10:34:59;0.45;;;0.45;;
45296;SDS011;31040;51.622;10.420;2023-07-20T10:40:26;0.50;;;0.50;;
45296;SDS011;31040;51.622;10.420;2023-07-20T10:42:58;1.15;;;0.70;;
45296;SDS011;31040;51.622;10.420;2023-07-20T10:45:41;0.80;;;0.50;;
45296;SDS011;31040;51.622;10.420;2023-07-20T10:48:13;1.23;;;0.60;;
45296;SDS011;31040;51.622;10.420;2023-07-20T10:50:42;0.60;;;0.57;;
45296;SDS011;31040;51.622;10.420;2023-07-20T10:53:10;0.60;;;0.52;;
45296;SDS011;31040;51.622;10.420;2023-07-20T10:55:41;1.95;;;0.80;;
45296;SDS011;31040;51.622;10.420;2023-07-20T10:58:13;1.35;;;0.55;;
45296;SDS011;31040;51.622;10.420;2023-07-20T11:01:27;0.90;;;0.63;;
45296;SDS011;31040;51.622;10.420;2023-07-20T11:03:33;0.73;;;0.50;;
45296;SDS011;31040;51.622;10.420;2023-07-20T11:08:46;0.40;;;0.40;;
45296;SDS011;31040;51.622;10.420;2023-07-20T11:11:26;0.50;;;0.50;;
45296;SDS011;31040;51.622;10.420;2023-07-20T11:13:58;0.68;;;0.68;;
45296;SDS011;31040;51.622;10.420;2023-07-20T11:19:02;0.65;;;0.65;;
45296;SDS011;31040;51.622;10.420;2023-07-20T11:21:35;0.73;;;0.73;;
45296;SDS011;31040;51.622;10.420;2023-07-20T11:24:21;0.60;;;0.60;;
45296;SDS011;31040;51.622;10.420;2023-07-20T11:29:16;1.23;;;0.77;;
45296;SDS011;31040;51.622;10.420;2023-07-20T11:31:57;0.75;;;0.70;;
45296;SDS011;31040;51.622;10.420;2023-07-20T11:34:25;1.02;;;0.60;;
45296;SDS011;31040;51.622;10.420;2023-07-20T11:36:53;0.50;;;0.50;;
45296;SDS011;31040;51.622;10.420;2023-07-20T11:39:24;0.80;;;0.60;;
45296;SDS011;31040;51.622;10.420;2023-07-20T11:41:55;1.38;;;0.60;;
45296;SDS011;31040;51.622;10.420;2023-07-20T11:44:24;0.70;;;0.70;;
45296;SDS011;31040;51.622;10.420;2023-07-20T11:47:08;0.40;;;0.40;;
45296;SDS011;31040;51.622;10.420;2023-07-20T11:52:07;1.42;;;0.60;;
45296;SDS011;31040;51.622;10.420;2023-07-20T11:54:35;0.60;;;0.60;;
45296;SDS011;31040;51.622;10.420;2023-07-20T11:57:04;0.40;;;0.40;;
45296;SDS011;31040;51.622;10.420;2023-07-20T11:59:32;0.50;;;0.50;;
45296;SDS011;31040;51.622;10.420;2023-07-20T12:02:03;0.50;;;0.50;;
45296;SDS011;31040;51.622;10.420;2023-07-20T12:04:31;1.10;;;0.50;;
45296;SDS011;31040;51.622;10.420;2023-07-20T12:06:59;0.77;;;0.50;;
45296;SDS011;31040;51.622;10.420;2023-07-20T12:09:27;0.63;;;0.60;;
45296;SDS011;31040;51.622;10.420;2023-07-20T12:12:11;1.90;;;0.50;;
45296;SDS011;31040;51.622;10.420;2023-07-20T12:14:39;0.60;;;0.60;;
45296;SDS011;31040;51.622;10.420;2023-07-20T12:17:08;0.55;;;0.55;;
45296;SDS011;31040;51.622;10.420;2023-07-20T12:19:39;1.65;;;0.70;;
45296;SDS011;31040;51.622;10.420;2023-07-20T12:22:06;0.93;;;0.63;;
45296;SDS011;31040;51.622;10.420;2023-07-20T12:24:34;0.50;;;0.50;;
45296;SDS011;31040;51.622;10.420;2023-07-20T12:27:02;2.75;;;0.90;;
45296;SDS011;31040;51.622;10.420;2023-07-20T12:29:30;0.90;;;0.57;;
45296;SDS011;31040;51.622;10.420;2023-07-20T12:32:02;0.55;;;0.55;;
45296;SDS011;31040;51.622;10.420;2023-07-20T12:34:29;0.50;;;0.50;;
45296;SDS011;31040;51.622;10.420;2023-07-20T12:36:57;0.73;;;0.73;;
45296;SDS011;31040;51.622;10.420;2023-07-20T12:39:25;0.57;;;0.57;;
45296;SDS011;31040;51.622;10.420;2023-07-20T12:41:52;0.65;;;0.65;;
45296;SDS011;31040;51.622;10.420;2023-07-20T12:44:20;0.95;;;0.60;;
45296;SDS011;31040;51.622;10.420;2023-07-20T12:46:47;1.20;;;0.70;;
45296;SDS011;31040;51.622;10.420;2023-07-20T12:49:15;1.02;;;0.73;;
45296;SDS011;31040;51.622;10.420;2023-07-20T12:51:42;0.60;;;0.60;;
45296;SDS011;31040;51.622;10.420;2023-07-20T12:54:10;1.27;;;0.60;;
45296;SDS011;31040;51.622;10.420;2023-07-20T12:56:37;0.73;;;0.60;;
45296;SDS011;31040;51.622;10.420;2023-07-20T12:59:08;0.63;;;0.63;;
45296;SDS011;31040;51.622;10.420;2023-07-20T13:01:35;0.80;;;0.80;;
45296;SDS011;31040;51.622;10.420;2023-07-20T13:04:04;1.85;;;0.60;;
45296;SDS011;31040;51.622;10.420;2023-07-20T13:06:34;0.70;;;0.70;;
45296;SDS011;31040;51.622;10.420;2023-07-20T13:09:02;1.50;;;0.80;;
45296;SDS011;31040;51.622;10.420;2023-07-20T13:11:31;2.00;;;0.80;;
45296;SDS011;31040;51.622;10.420;2023-07-20T13:13:58;0.60;;;0.60;;
45296;SDS011;31040;51.622;10.420;2023-07-20T13:16:26;0.63;;;0.50;;
45296;SDS011;31040;51.622;10.420;2023-07-20T13:18:53;0.70;;;0.70;;
45296;SDS011;31040;51.622;10.420;2023-07-20T13:21:21;1.00;;;0.80;;
45296;SDS011;31040;51.622;10.420;2023-07-20T13:23:51;0.52;;;0.52;;
45296;SDS011;31040;51.622;10.420;2023-07-20T13:26:19;1.17;;;0.77;;
45296;SDS011;31040;51.622;10.420;2023-07-20T13:28:46;0.52;;;0.50;;
45296;SDS011;31040;51.622;10.420;2023-07-20T13:31:14;5.57;;;0.80;;
45296;SDS011;31040;51.622;10.420;2023-07-20T13:33:44;1.38;;;0.80;;
45296;SDS011;31040;51.622;10.420;2023-07-20T13:36:22;0.70;;;0.70;;
45296;SDS011;31040;51.622;10.420;2023-07-20T13:38:50;0.50;;;0.50;;
45296;SDS011;31040;51.622;10.420;2023-07-20T13:41:18;0.70;;;0.60;;
45296;SDS011;31040;51.622;10.420;2023-07-20T13:43:46;1.55;;;0.60;;
45296;SDS011;31040;51.622;10.420;2023-07-20T13:46:13;0.60;;;0.60;;
45296;SDS011;31040;51.622;10.420;2023-07-20T13:49:01;0.70;;;0.63;;
45296;SDS011;31040;51.622;10.420;2023-07-20T13:51:28;0.60;;;0.60;;
45296;SDS011;31040;51.622;10.420;2023-07-20T13:53:56;1.15;;;0.60;;
45296;SDS011;31040;51.622;10.420;2023-07-20T13:56:24;0.57;;;0.57;;
45296;SDS011;31040;51.622;10.420;2023-07-20T13:58:52;1.10;;;0.68;;
45296;SDS011;31040;51.622;10.420;2023-07-20T14:01:19;1.17;;;0.80;;
45296;SDS011;31040;51.622;10.420;2023-07-20T14:03:52;0.60;;;0.60;;
45296;SDS011;31040;51.622;10.420;2023-07-20T14:06:20;0.90;;;0.68;;
45296;SDS011;31040;51.622;10.420;2023-07-20T14:08:51;0.75;;;0.75;;
45296;SDS011;31040;51.622;10.420;2023-07-20T14:11:19;1.60;;;0.60;;
45296;SDS011;31040;51.622;10.420;2023-07-20T14:13:50;0.75;;;0.75;;
45296;SDS011;31040;51.622;10.420;2023-07-20T14:16:22;0.55;;;0.50;;
45296;SDS011;31040;51.622;10.420;2023-07-20T14:18:51;0.73;;;0.50;;
45296;SDS011;31040;51.622;10.420;2023-07-20T14:21:19;1.10;;;0.63;;
45296;SDS011;31040;51.622;10.420;2023-07-20T14:23:48;1.95;;;0.60;;
45296;SDS011;31040;51.622;10.420;2023-07-20T14:26:19;0.57;;;0.57;;
45296;SDS011;31040;51.622;10.420;2023-07-20T14:28:48;1.05;;;0.55;;
45296;SDS011;31040;51.622;10.420;2023-07-20T14:31:16;0.93;;;0.73;;
45296;SDS011;31040;51.622;10.420;2023-07-20T14:33:44;0.82;;;0.60;;
45296;SDS011;31040;51.622;10.420;2023-07-20T14:36:12;0.90;;;0.60;;
45296;SDS011;31040;51.622;10.420;2023-07-20T14:38:39;0.50;;;0.50;;
45296;SDS011;31040;51.622;10.420;2023-07-20T14:41:07;0.60;;;0.60;;
45296;SDS011;31040;51.622;10.420;2023-07-20T14:43:34;0.43;;;0.43;;
45296;SDS011;31040;51.622;10.420;2023-07-20T14:46:02;0.88;;;0.50;;
45296;SDS011;31040;51.622;10.420;2023-07-20T14:48:29;1.58;;;0.52;;
45296;SDS011;31040;51.622;10.420;2023-07-20T14:50:57;0.70;;;0.40;;
45296;SDS011;31040;51.622;10.420;2023-07-20T14:53:27;1.20;;;0.80;;
45296;SDS011;31040;51.622;10.420;2023-07-20T14:56:01;0.40;;;0.40;;
45296;SDS011;31040;51.622;10.420;2023-07-20T14:58:29;0.57;;;0.50;;
45296;SDS011;31040;51.622;10.420;2023-07-20T15:01:00;7.78;;;1.05;;
45296;SDS011;31040;51.622;10.420;2023-07-20T15:03:27;1.02;;;0.43;;
45296;SDS011;31040;51.622;10.420;2023-07-20T15:05:57;1.88;;;0.40;;